sensor_id;sensor_type;location;lat;lon;timestamp;pressure;altitude;pressure_sealevel;temperature;humidity
7532;BME280;3807;49.030;8.714;2023-03-14T00:00:13;97607.25;;;13.05;73.43
7532;BME280;3807;49.030;8.714;2023-03-14T00:02:39;97611.00;;;12.88;71.72
7532;BME280;3807;49.030;8.714;2023-03-14T00:05:05;97615.66;;;13.07;73.58
7532;BME280;3807;49.030;8.714;2023-03-14T00:07:35;97612.59;;;13.02;71.38
7532;BME280;3807;49.030;8.714;2023-03-14T00:10:11;97621.00;;;12.92;72.20
7532;BME280;3807;49.030;8.714;2023-03-14T00:12:38;97617.09;;;12.99;72.97
7532;BME280;3807;49.030;8.714;2023-03-14T00:15:03;97611.50;;;13.18;71.96
7532;BME280;3807;49.030;8.714;2023-03-14T00:17:30;97620.28;;;12.90;74.23
7532;BME280;3807;49.030;8.714;2023-03-14T00:19:56;97620.38;;;12.64;72.66
7532;BME280;3807;49.030;8.714;2023-03-14T00:22:21;97614.72;;;13.08;73.58
7532;BME280;3807;49.030;8.714;2023-03-14T00:24:47;97616.84;;;13.15;72.21
7532;BME280;3807;49.030;8.714;2023-03-14T00:27:12;97614.22;;;13.03;72.74
7532;BME280;3807;49.030;8.714;2023-03-14T00:29:38;97604.94;;;13.02;73.55
7532;BME280;3807;49.030;8.714;2023-03-14T00:32:03;97589.22;;;12.96;72.92
7532;BME280;3807;49.030;8.714;2023-03-14T00:34:31;97593.13;;;13.13;73.49
7532;BME280;3807;49.030;8.714;2023-03-14T00:36:57;97607.22;;;13.18;73.11
7532;BME280;3807;49.030;8.714;2023-03-14T00:39:22;97596.66;;;13.23;71.53
7532;BME280;3807;49.030;8.714;2023-03-14T00:41:48;97596.97;;;13.42;72.41
7532;BME280;3807;49.030;8.714;2023-03-14T00:44:13;97596.56;;;12.76;71.23
7532;BME280;3807;49.030;8.714;2023-03-14T00:46:38;97599.34;;;12.97;72.71
7532;BME280;3807;49.030;8.714;2023-03-14T00:49:04;97596.84;;;12.72;71.87
7532;BME280;3807;49.030;8.714;2023-03-14T00:51:29;97606.94;;;13.10;73.07
7532;BME280;3807;49.030;8.714;2023-03-14T00:53:54;97608.06;;;13.06;73.71
7532;BME280;3807;49.030;8.714;2023-03-14T00:56:20;97613.94;;;13.19;72.53
7532;BME280;3807;49.030;8.714;2023-03-14T00:58:45;97609.66;;;12.96;72.22
7532;BME280;3807;49.030;8.714;2023-03-14T01:01:14;97624.22;;;13.06;71.31
7532;BME280;3807;49.030;8.714;2023-03-14T01:03:40;97624.50;;;13.15;70.38
7532;BME280;3807;49.030;8.714;2023-03-14T01:06:11;97634.44;;;13.06;72.87
7532;BME280;3807;49.030;8.714;2023-03-14T01:08:36;97624.81;;;13.10;70.57
7532;BME280;3807;49.030;8.714;2023-03-14T01:11:10;97629.28;;;13.19;71.82
7532;BME280;3807;49.030;8.714;2023-03-14T01:13:36;97619.56;;;13.24;71.33
7532;BME280;3807;49.030;8.714;2023-03-14T01:16:03;97624.19;;;13.19;71.75
7532;BME280;3807;49.030;8.714;2023-03-14T01:18:30;97623.66;;;13.27;71.35
7532;BME280;3807;49.030;8.714;2023-03-14T01:20:55;97617.72;;;13.26;70.74
7532;BME280;3807;49.030;8.714;2023-03-14T01:23:21;97620.09;;;13.17;71.26
7532;BME280;3807;49.030;8.714;2023-03-14T01:25:46;97619.62;;;13.11;71.12
7532;BME280;3807;49.030;8.714;2023-03-14T01:28:11;97603.22;;;13.14;71.23
7532;BME280;3807;49.030;8.714;2023-03-14T01:30:37;97578.59;;;13.13;70.95
7532;BME280;3807;49.030;8.714;2023-03-14T01:33:02;97568.53;;;13.23;70.64
7532;BME280;3807;49.030;8.714;2023-03-14T01:35:27;97557.81;;;13.18;70.66
7532;BME280;3807;49.030;8.714;2023-03-14T01:37:53;97563.56;;;12.97;71.29
7532;BME280;3807;49.030;8.714;2023-03-14T01:40:18;97554.78;;;13.13;71.32
7532;BME280;3807;49.030;8.714;2023-03-14T01:42:55;97558.75;;;12.69;72.54
7532;BME280;3807;49.030;8.714;2023-03-14T01:48:25;97550.06;;;12.95;72.54
7532;BME280;3807;49.030;8.714;2023-03-14T01:50:50;97547.56;;;12.82;72.00
7532;BME280;3807;49.030;8.714;2023-03-14T01:53:16;97541.38;;;12.74;72.41
7532;BME280;3807;49.030;8.714;2023-03-14T01:55:47;97532.16;;;12.60;72.67
7532;BME280;3807;49.030;8.714;2023-03-14T01:58:13;97525.63;;;12.80;72.44
7532;BME280;3807;49.030;8.714;2023-03-14T02:00:40;97517.19;;;12.91;71.98
7532;BME280;3807;49.030;8.714;2023-03-14T02:03:11;97522.16;;;12.81;71.83
7532;BME280;3807;49.030;8.714;2023-03-14T02:05:39;97526.63;;;12.66;72.64
7532;BME280;3807;49.030;8.714;2023-03-14T02:08:08;97515.13;;;12.72;72.09
7532;BME280;3807;49.030;8.714;2023-03-14T02:10:41;97506.88;;;12.68;72.20
7532;BME280;3807;49.030;8.714;2023-03-14T02:13:07;97509.53;;;12.91;71.41
7532;BME280;3807;49.030;8.714;2023-03-14T02:15:33;97512.16;;;12.78;71.88
7532;BME280;3807;49.030;8.714;2023-03-14T02:17:59;97521.97;;;12.71;72.28
7532;BME280;3807;49.030;8.714;2023-03-14T02:23:11;97516.53;;;12.76;72.04
7532;BME280;3807;49.030;8.714;2023-03-14T02:25:45;97528.97;;;12.69;72.54
7532;BME280;3807;49.030;8.714;2023-03-14T02:28:14;97526.81;;;12.63;72.57
7532;BME280;3807;49.030;8.714;2023-03-14T02:30:40;97502.34;;;12.72;71.78
7532;BME280;3807;49.030;8.714;2023-03-14T02:33:11;97498.81;;;12.85;71.36
7532;BME280;3807;49.030;8.714;2023-03-14T02:35:51;97488.94;;;12.57;71.92
7532;BME280;3807;49.030;8.714;2023-03-14T02:38:33;97492.00;;;12.38;72.45
7532;BME280;3807;49.030;8.714;2023-03-14T02:41:01;97496.41;;;12.23;73.16
7532;BME280;3807;49.030;8.714;2023-03-14T02:43:26;97487.94;;;12.23;73.30
7532;BME280;3807;49.030;8.714;2023-03-14T02:45:52;97485.50;;;12.21;73.63
7532;BME280;3807;49.030;8.714;2023-03-14T02:50:48;97480.25;;;12.35;72.62
7532;BME280;3807;49.030;8.714;2023-03-14T02:53:18;97468.78;;;12.17;72.76
7532;BME280;3807;49.030;8.714;2023-03-14T02:55:45;97473.38;;;12.12;73.22
7532;BME280;3807;49.030;8.714;2023-03-14T02:58:11;97468.28;;;12.12;73.33
7532;BME280;3807;49.030;8.714;2023-03-14T03:00:36;97462.84;;;12.16;73.43
7532;BME280;3807;49.030;8.714;2023-03-14T03:03:02;97467.47;;;12.11;73.20
7532;BME280;3807;49.030;8.714;2023-03-14T03:05:27;97460.56;;;12.01;73.54
7532;BME280;3807;49.030;8.714;2023-03-14T03:07:52;97447.78;;;12.13;73.14
7532;BME280;3807;49.030;8.714;2023-03-14T03:10:18;97461.34;;;12.14;72.71
7532;BME280;3807;49.030;8.714;2023-03-14T03:12:43;97442.38;;;12.05;73.06
7532;BME280;3807;49.030;8.714;2023-03-14T03:15:09;97453.25;;;12.20;72.93
7532;BME280;3807;49.030;8.714;2023-03-14T03:17:35;97440.94;;;12.14;73.19
7532;BME280;3807;49.030;8.714;2023-03-14T03:20:00;97414.97;;;12.20;72.46
7532;BME280;3807;49.030;8.714;2023-03-14T03:22:25;97413.12;;;12.22;72.57
7532;BME280;3807;49.030;8.714;2023-03-14T03:24:51;97414.38;;;12.40;71.62
7532;BME280;3807;49.030;8.714;2023-03-14T03:27:16;97401.72;;;12.15;71.85
7532;BME280;3807;49.030;8.714;2023-03-14T03:29:41;97402.28;;;12.07;72.48
7532;BME280;3807;49.030;8.714;2023-03-14T03:32:07;97392.06;;;12.07;72.42
7532;BME280;3807;49.030;8.714;2023-03-14T03:34:32;97396.28;;;12.20;72.48
7532;BME280;3807;49.030;8.714;2023-03-14T03:36:58;97394.50;;;12.09;72.31
7532;BME280;3807;49.030;8.714;2023-03-14T03:39:23;97393.34;;;12.13;71.89
7532;BME280;3807;49.030;8.714;2023-03-14T03:41:49;97401.69;;;12.04;72.28
7532;BME280;3807;49.030;8.714;2023-03-14T03:44:14;97394.03;;;12.04;72.38
7532;BME280;3807;49.030;8.714;2023-03-14T03:46:39;97386.97;;;12.07;72.09
7532;BME280;3807;49.030;8.714;2023-03-14T03:49:05;97374.75;;;12.00;71.80
7532;BME280;3807;49.030;8.714;2023-03-14T03:51:30;97379.63;;;12.03;72.08
7532;BME280;3807;49.030;8.714;2023-03-14T03:53:56;97380.22;;;12.06;71.50
7532;BME280;3807;49.030;8.714;2023-03-14T03:56:22;97375.25;;;12.05;71.95
7532;BME280;3807;49.030;8.714;2023-03-14T03:58:47;97362.66;;;12.14;71.45
7532;BME280;3807;49.030;8.714;2023-03-14T04:01:12;97356.22;;;11.85;72.07
7532;BME280;3807;49.030;8.714;2023-03-14T04:03:38;97363.34;;;12.16;72.05
7532;BME280;3807;49.030;8.714;2023-03-14T04:06:05;97358.31;;;12.04;71.10
7532;BME280;3807;49.030;8.714;2023-03-14T04:08:31;97361.41;;;11.83;71.63
7532;BME280;3807;49.030;8.714;2023-03-14T04:10:58;97355.81;;;11.91;71.45
7532;BME280;3807;49.030;8.714;2023-03-14T04:13:24;97351.34;;;12.06;71.31
7532;BME280;3807;49.030;8.714;2023-03-14T04:15:50;97348.19;;;12.02;71.14
7532;BME280;3807;49.030;8.714;2023-03-14T04:18:16;97342.25;;;11.90;70.69
7532;BME280;3807;49.030;8.714;2023-03-14T04:20:41;97345.41;;;11.81;72.09
7532;BME280;3807;49.030;8.714;2023-03-14T04:23:06;97353.69;;;11.85;70.71
7532;BME280;3807;49.030;8.714;2023-03-14T04:25:32;97345.47;;;12.16;70.55
7532;BME280;3807;49.030;8.714;2023-03-14T04:27:57;97341.94;;;12.06;70.76
7532;BME280;3807;49.030;8.714;2023-03-14T04:30:22;97345.72;;;11.89;70.70
7532;BME280;3807;49.030;8.714;2023-03-14T04:32:48;97349.69;;;11.94;70.71
7532;BME280;3807;49.030;8.714;2023-03-14T04:35:13;97339.81;;;11.89;70.68
7532;BME280;3807;49.030;8.714;2023-03-14T04:37:38;97333.19;;;11.74;70.81
7532;BME280;3807;49.030;8.714;2023-03-14T04:40:05;97327.44;;;11.83;71.51
7532;BME280;3807;49.030;8.714;2023-03-14T04:42:32;97326.94;;;11.78;70.83
7532;BME280;3807;49.030;8.714;2023-03-14T04:44:57;97327.16;;;11.87;70.73
7532;BME280;3807;49.030;8.714;2023-03-14T04:47:22;97323.19;;;11.71;70.88
7532;BME280;3807;49.030;8.714;2023-03-14T04:49:48;97324.16;;;11.57;71.13
7532;BME280;3807;49.030;8.714;2023-03-14T04:52:13;97312.94;;;11.96;70.59
7532;BME280;3807;49.030;8.714;2023-03-14T04:54:38;97312.41;;;11.67;70.70
7532;BME280;3807;49.030;8.714;2023-03-14T04:57:04;97320.13;;;11.54;70.99
7532;BME280;3807;49.030;8.714;2023-03-14T04:59:29;97308.19;;;11.55;70.92
7532;BME280;3807;49.030;8.714;2023-03-14T05:01:54;97307.12;;;11.57;71.15
7532;BME280;3807;49.030;8.714;2023-03-14T05:04:20;97300.16;;;11.72;70.87
7532;BME280;3807;49.030;8.714;2023-03-14T05:06:45;97297.53;;;11.61;70.76
7532;BME280;3807;49.030;8.714;2023-03-14T05:09:10;97298.50;;;11.71;71.13
7532;BME280;3807;49.030;8.714;2023-03-14T05:11:36;97288.31;;;11.71;70.68
7532;BME280;3807;49.030;8.714;2023-03-14T05:14:01;97287.41;;;11.72;70.62
7532;BME280;3807;49.030;8.714;2023-03-14T05:16:26;97282.38;;;11.47;69.38
7532;BME280;3807;49.030;8.714;2023-03-14T05:18:52;97284.09;;;11.59;71.33
7532;BME280;3807;49.030;8.714;2023-03-14T05:21:17;97281.84;;;11.78;70.41
7532;BME280;3807;49.030;8.714;2023-03-14T05:23:42;97285.50;;;11.63;70.36
7532;BME280;3807;49.030;8.714;2023-03-14T05:26:08;97282.25;;;11.61;70.34
7532;BME280;3807;49.030;8.714;2023-03-14T05:28:33;97283.69;;;11.65;70.83
7532;BME280;3807;49.030;8.714;2023-03-14T05:30:59;97284.09;;;11.59;71.01
7532;BME280;3807;49.030;8.714;2023-03-14T05:33:24;97281.53;;;11.59;70.24
7532;BME280;3807;49.030;8.714;2023-03-14T05:35:49;97285.31;;;11.53;70.96
7532;BME280;3807;49.030;8.714;2023-03-14T05:38:15;97272.50;;;11.55;70.04
7532;BME280;3807;49.030;8.714;2023-03-14T05:40:40;97269.34;;;11.51;70.35
7532;BME280;3807;49.030;8.714;2023-03-14T05:43:05;97281.97;;;11.53;70.07
7532;BME280;3807;49.030;8.714;2023-03-14T05:45:33;97278.13;;;11.71;70.43
7532;BME280;3807;49.030;8.714;2023-03-14T05:47:58;97284.47;;;11.65;69.54
7532;BME280;3807;49.030;8.714;2023-03-14T05:50:24;97275.69;;;11.69;69.79
7532;BME280;3807;49.030;8.714;2023-03-14T05:52:49;97261.91;;;11.72;70.41
7532;BME280;3807;49.030;8.714;2023-03-14T05:55:15;97268.28;;;11.54;69.83
7532;BME280;3807;49.030;8.714;2023-03-14T05:57:40;97258.94;;;11.54;70.61
7532;BME280;3807;49.030;8.714;2023-03-14T06:00:06;97271.56;;;11.80;69.87
7532;BME280;3807;49.030;8.714;2023-03-14T06:02:31;97266.47;;;11.56;70.25
7532;BME280;3807;49.030;8.714;2023-03-14T06:04:57;97265.66;;;11.55;69.84
7532;BME280;3807;49.030;8.714;2023-03-14T06:07:22;97270.09;;;11.64;70.63
7532;BME280;3807;49.030;8.714;2023-03-14T06:09:47;97261.50;;;11.54;69.66
7532;BME280;3807;49.030;8.714;2023-03-14T06:12:13;97256.09;;;11.70;70.32
7532;BME280;3807;49.030;8.714;2023-03-14T06:14:38;97272.63;;;11.64;69.71
7532;BME280;3807;49.030;8.714;2023-03-14T06:17:03;97260.28;;;11.71;70.09
7532;BME280;3807;49.030;8.714;2023-03-14T06:19:29;97264.63;;;11.58;70.50
7532;BME280;3807;49.030;8.714;2023-03-14T06:21:54;97262.22;;;11.43;70.68
7532;BME280;3807;49.030;8.714;2023-03-14T06:24:19;97274.00;;;11.57;70.69
7532;BME280;3807;49.030;8.714;2023-03-14T06:26:45;97265.28;;;11.49;70.62
7532;BME280;3807;49.030;8.714;2023-03-14T06:29:10;97259.78;;;11.66;70.08
7532;BME280;3807;49.030;8.714;2023-03-14T06:31:35;97257.47;;;11.63;69.84
7532;BME280;3807;49.030;8.714;2023-03-14T06:34:01;97268.03;;;11.45;70.04
7532;BME280;3807;49.030;8.714;2023-03-14T06:36:26;97256.16;;;11.57;70.19
7532;BME280;3807;49.030;8.714;2023-03-14T06:38:51;97275.81;;;11.68;70.17
7532;BME280;3807;49.030;8.714;2023-03-14T06:41:17;97274.34;;;11.77;69.04
7532;BME280;3807;49.030;8.714;2023-03-14T06:43:42;97280.97;;;11.79;69.63
7532;BME280;3807;49.030;8.714;2023-03-14T06:46:08;97275.13;;;11.90;69.25
7532;BME280;3807;49.030;8.714;2023-03-14T06:48:33;97278.50;;;11.78;69.29
7532;BME280;3807;49.030;8.714;2023-03-14T06:50:58;97279.72;;;11.85;70.11
7532;BME280;3807;49.030;8.714;2023-03-14T06:53:24;97287.37;;;11.85;69.16
7532;BME280;3807;49.030;8.714;2023-03-14T06:55:49;97288.34;;;11.95;69.32
7532;BME280;3807;49.030;8.714;2023-03-14T06:58:15;97306.56;;;11.78;69.26
7532;BME280;3807;49.030;8.714;2023-03-14T07:00:40;97298.16;;;11.88;69.00
7532;BME280;3807;49.030;8.714;2023-03-14T07:03:06;97305.59;;;11.91;69.14
7532;BME280;3807;49.030;8.714;2023-03-14T07:05:31;97297.22;;;11.65;69.69
7532;BME280;3807;49.030;8.714;2023-03-14T07:07:57;97306.47;;;11.79;69.40
7532;BME280;3807;49.030;8.714;2023-03-14T07:10:22;97307.69;;;11.74;69.45
7532;BME280;3807;49.030;8.714;2023-03-14T07:12:47;97300.94;;;11.85;69.44
7532;BME280;3807;49.030;8.714;2023-03-14T07:15:13;97312.59;;;12.01;68.93
7532;BME280;3807;49.030;8.714;2023-03-14T07:17:38;97319.34;;;12.02;68.52
7532;BME280;3807;49.030;8.714;2023-03-14T07:20:04;97327.69;;;12.04;68.82
7532;BME280;3807;49.030;8.714;2023-03-14T07:22:30;97323.78;;;12.11;68.80
7532;BME280;3807;49.030;8.714;2023-03-14T07:24:56;97323.06;;;12.09;68.50
7532;BME280;3807;49.030;8.714;2023-03-14T07:27:21;97327.69;;;12.04;69.03
7532;BME280;3807;49.030;8.714;2023-03-14T07:29:47;97322.56;;;11.93;69.10
7532;BME280;3807;49.030;8.714;2023-03-14T07:32:12;97335.59;;;11.88;69.39
7532;BME280;3807;49.030;8.714;2023-03-14T07:34:40;97329.81;;;11.86;69.30
7532;BME280;3807;49.030;8.714;2023-03-14T07:37:06;97348.97;;;11.91;68.81
7532;BME280;3807;49.030;8.714;2023-03-14T07:39:31;97317.75;;;11.88;69.27
7532;BME280;3807;49.030;8.714;2023-03-14T07:41:56;97328.22;;;11.72;68.84
7532;BME280;3807;49.030;8.714;2023-03-14T07:44:22;97327.53;;;11.81;68.49
7532;BME280;3807;49.030;8.714;2023-03-14T07:46:47;97343.31;;;11.99;68.34
7532;BME280;3807;49.030;8.714;2023-03-14T07:49:12;97337.06;;;11.79;68.51
7532;BME280;3807;49.030;8.714;2023-03-14T07:51:37;97333.56;;;11.93;68.70
7532;BME280;3807;49.030;8.714;2023-03-14T07:54:03;97339.25;;;11.97;68.78
7532;BME280;3807;49.030;8.714;2023-03-14T07:56:28;97334.50;;;11.79;69.27
7532;BME280;3807;49.030;8.714;2023-03-14T07:58:54;97343.44;;;11.98;68.35
7532;BME280;3807;49.030;8.714;2023-03-14T08:01:20;97339.06;;;12.00;68.65
7532;BME280;3807;49.030;8.714;2023-03-14T08:03:45;97322.31;;;11.96;68.73
7532;BME280;3807;49.030;8.714;2023-03-14T08:06:10;97326.13;;;11.90;68.69
7532;BME280;3807;49.030;8.714;2023-03-14T08:08:36;97327.44;;;11.83;67.98
7532;BME280;3807;49.030;8.714;2023-03-14T08:11:05;97335.72;;;11.86;68.08
7532;BME280;3807;49.030;8.714;2023-03-14T08:13:33;97322.56;;;11.93;67.93
7532;BME280;3807;49.030;8.714;2023-03-14T08:15:59;97319.72;;;12.08;67.90
7532;BME280;3807;49.030;8.714;2023-03-14T08:18:24;97315.94;;;11.90;67.92
7532;BME280;3807;49.030;8.714;2023-03-14T08:20:49;97320.94;;;12.03;67.65
7532;BME280;3807;49.030;8.714;2023-03-14T08:23:15;97313.38;;;11.77;68.13
7532;BME280;3807;49.030;8.714;2023-03-14T08:25:40;97317.28;;;11.70;67.94
7532;BME280;3807;49.030;8.714;2023-03-14T08:28:05;97314.53;;;11.86;68.33
7532;BME280;3807;49.030;8.714;2023-03-14T08:30:31;97324.81;;;12.08;66.90
7532;BME280;3807;49.030;8.714;2023-03-14T08:32:57;97315.53;;;12.07;67.26
7532;BME280;3807;49.030;8.714;2023-03-14T08:35:23;97321.44;;;12.08;67.52
7532;BME280;3807;49.030;8.714;2023-03-14T08:37:49;97331.09;;;12.15;67.43
7532;BME280;3807;49.030;8.714;2023-03-14T08:40:14;97329.75;;;12.34;67.30
7532;BME280;3807;49.030;8.714;2023-03-14T08:42:42;97347.50;;;12.24;67.85
7532;BME280;3807;49.030;8.714;2023-03-14T08:45:10;97337.75;;;11.94;68.84
7532;BME280;3807;49.030;8.714;2023-03-14T08:47:36;97327.75;;;11.78;69.44
7532;BME280;3807;49.030;8.714;2023-03-14T08:50:02;97339.19;;;12.09;68.86
7532;BME280;3807;49.030;8.714;2023-03-14T08:52:29;97341.75;;;12.09;68.94
7532;BME280;3807;49.030;8.714;2023-03-14T08:54:55;97343.81;;;12.04;69.29
7532;BME280;3807;49.030;8.714;2023-03-14T08:57:21;97337.00;;;11.92;69.93
7532;BME280;3807;49.030;8.714;2023-03-14T08:59:47;97351.84;;;12.11;69.73
7532;BME280;3807;49.030;8.714;2023-03-14T09:02:12;97357.22;;;12.19;69.54
7532;BME280;3807;49.030;8.714;2023-03-14T09:04:38;97334.03;;;11.98;70.26
7532;BME280;3807;49.030;8.714;2023-03-14T09:07:04;97347.13;;;11.94;70.23
7532;BME280;3807;49.030;8.714;2023-03-14T09:09:29;97358.75;;;11.98;69.93
7532;BME280;3807;49.030;8.714;2023-03-14T09:11:55;97355.59;;;12.18;69.44
7532;BME280;3807;49.030;8.714;2023-03-14T09:14:21;97357.13;;;12.21;68.93
7532;BME280;3807;49.030;8.714;2023-03-14T09:16:46;97367.53;;;12.18;69.23
7532;BME280;3807;49.030;8.714;2023-03-14T09:19:11;97363.28;;;12.05;69.07
7532;BME280;3807;49.030;8.714;2023-03-14T09:21:37;97368.12;;;12.21;68.84
7532;BME280;3807;49.030;8.714;2023-03-14T09:24:04;97375.78;;;12.45;67.70
7532;BME280;3807;49.030;8.714;2023-03-14T09:26:29;97383.06;;;12.38;68.24
7532;BME280;3807;49.030;8.714;2023-03-14T09:28:54;97387.09;;;12.41;68.17
7532;BME280;3807;49.030;8.714;2023-03-14T09:31:20;97380.03;;;12.45;68.30
7532;BME280;3807;49.030;8.714;2023-03-14T09:33:45;97382.25;;;12.38;67.81
7532;BME280;3807;49.030;8.714;2023-03-14T09:36:10;97389.03;;;12.26;68.61
7532;BME280;3807;49.030;8.714;2023-03-14T09:38:36;97398.19;;;12.53;67.73
7532;BME280;3807;49.030;8.714;2023-03-14T09:41:12;97393.94;;;12.40;67.38
7532;BME280;3807;49.030;8.714;2023-03-14T09:43:39;97384.56;;;12.41;67.32
7532;BME280;3807;49.030;8.714;2023-03-14T09:46:08;97390.16;;;12.46;67.66
7532;BME280;3807;49.030;8.714;2023-03-14T09:48:35;97386.44;;;12.50;67.64
7532;BME280;3807;49.030;8.714;2023-03-14T09:51:05;97387.41;;;12.60;67.41
7532;BME280;3807;49.030;8.714;2023-03-14T09:53:44;97392.47;;;12.38;67.76
7532;BME280;3807;49.030;8.714;2023-03-14T09:56:17;97381.31;;;12.39;67.58
7532;BME280;3807;49.030;8.714;2023-03-14T09:58:47;97393.81;;;12.66;66.80
7532;BME280;3807;49.030;8.714;2023-03-14T10:01:16;97396.75;;;12.73;66.23
7532;BME280;3807;49.030;8.714;2023-03-14T10:03:45;97388.28;;;12.83;66.23
7532;BME280;3807;49.030;8.714;2023-03-14T10:06:13;97398.81;;;12.32;67.90
7532;BME280;3807;49.030;8.714;2023-03-14T10:08:43;97390.81;;;12.37;68.39
7532;BME280;3807;49.030;8.714;2023-03-14T10:11:16;97409.22;;;12.29;69.33
7532;BME280;3807;49.030;8.714;2023-03-14T10:13:52;97411.81;;;12.40;70.20
7532;BME280;3807;49.030;8.714;2023-03-14T10:16:32;97415.91;;;12.19;71.10
7532;BME280;3807;49.030;8.714;2023-03-14T10:19:04;97407.91;;;12.24;71.19
7532;BME280;3807;49.030;8.714;2023-03-14T10:21:30;97413.00;;;12.24;71.30
7532;BME280;3807;49.030;8.714;2023-03-14T10:24:19;97416.87;;;12.29;71.39
7532;BME280;3807;49.030;8.714;2023-03-14T10:26:48;97416.41;;;12.24;71.72
7532;BME280;3807;49.030;8.714;2023-03-14T10:29:14;97421.81;;;12.44;71.52
7532;BME280;3807;49.030;8.714;2023-03-14T10:32:02;97422.38;;;12.36;71.46
7532;BME280;3807;49.030;8.714;2023-03-14T10:34:33;97431.47;;;12.51;71.53
7532;BME280;3807;49.030;8.714;2023-03-14T10:37:18;97413.31;;;12.32;71.71
7532;BME280;3807;49.030;8.714;2023-03-14T10:39:49;97414.09;;;12.56;71.47
7532;BME280;3807;49.030;8.714;2023-03-14T10:42:21;97415.09;;;12.19;72.79
7532;BME280;3807;49.030;8.714;2023-03-14T10:44:54;97427.38;;;12.13;73.26
7532;BME280;3807;49.030;8.714;2023-03-14T10:47:23;97420.28;;;12.41;71.97
7532;BME280;3807;49.030;8.714;2023-03-14T10:49:49;97428.53;;;12.45;73.00
7532;BME280;3807;49.030;8.714;2023-03-14T10:52:19;97429.38;;;12.45;72.95
7532;BME280;3807;49.030;8.714;2023-03-14T10:54:58;97439.22;;;12.38;72.90
7532;BME280;3807;49.030;8.714;2023-03-14T10:57:25;97438.47;;;12.60;73.09
7532;BME280;3807;49.030;8.714;2023-03-14T10:59:51;97440.06;;;12.26;73.81
7532;BME280;3807;49.030;8.714;2023-03-14T11:05:21;97447.84;;;12.25;74.68
7532;BME280;3807;49.030;8.714;2023-03-14T11:07:48;97444.91;;;12.66;73.16
7532;BME280;3807;49.030;8.714;2023-03-14T11:10:39;97449.28;;;12.16;74.87
7532;BME280;3807;49.030;8.714;2023-03-14T11:13:20;97457.25;;;12.11;75.46
7532;BME280;3807;49.030;8.714;2023-03-14T11:21:56;97463.69;;;12.17;75.68
7532;BME280;3807;49.030;8.714;2023-03-14T11:27:18;97462.53;;;12.21;75.71
7532;BME280;3807;49.030;8.714;2023-03-14T11:32:23;97472.59;;;11.99;77.12
7532;BME280;3807;49.030;8.714;2023-03-14T11:34:53;97474.69;;;11.55;78.93
7532;BME280;3807;49.030;8.714;2023-03-14T11:37:36;97490.59;;;11.72;78.97
7532;BME280;3807;49.030;8.714;2023-03-14T11:42:31;97481.47;;;11.80;78.05
7532;BME280;3807;49.030;8.714;2023-03-14T11:44:59;97476.69;;;11.88;77.71
7532;BME280;3807;49.030;8.714;2023-03-14T11:47:30;97487.50;;;11.54;79.52
7532;BME280;3807;49.030;8.714;2023-03-14T11:50:12;97485.47;;;11.59;79.22
7532;BME280;3807;49.030;8.714;2023-03-14T11:52:50;97500.03;;;12.08;76.93
7532;BME280;3807;49.030;8.714;2023-03-14T11:55:25;97497.19;;;11.74;78.25
7532;BME280;3807;49.030;8.714;2023-03-14T11:57:57;97499.53;;;11.64;77.59
7532;BME280;3807;49.030;8.714;2023-03-14T12:00:24;97525.75;;;11.79;76.04
7532;BME280;3807;49.030;8.714;2023-03-14T12:06:09;97529.84;;;11.69;75.49
7532;BME280;3807;49.030;8.714;2023-03-14T12:08:56;97571.16;;;11.61;74.15
7532;BME280;3807;49.030;8.714;2023-03-14T12:11:37;97579.50;;;11.51;73.91
7532;BME280;3807;49.030;8.714;2023-03-14T12:14:17;97594.47;;;11.55;74.59
7532;BME280;3807;49.030;8.714;2023-03-14T12:16:46;97610.28;;;11.48;73.83
7532;BME280;3807;49.030;8.714;2023-03-14T12:22:28;97647.47;;;11.37;73.86
7532;BME280;3807;49.030;8.714;2023-03-14T12:25:23;97655.53;;;11.17;73.94
7532;BME280;3807;49.030;8.714;2023-03-14T12:28:02;97674.56;;;11.38;72.06
7532;BME280;3807;49.030;8.714;2023-03-14T12:30:33;97678.19;;;11.21;73.15
7532;BME280;3807;49.030;8.714;2023-03-14T12:35:41;97689.00;;;11.52;71.77
7532;BME280;3807;49.030;8.714;2023-03-14T12:43:28;97709.88;;;11.44;70.78
7532;BME280;3807;49.030;8.714;2023-03-14T12:46:09;97706.22;;;11.49;70.92
7532;BME280;3807;49.030;8.714;2023-03-14T12:48:40;97727.56;;;11.87;69.71
7532;BME280;3807;49.030;8.714;2023-03-14T12:51:16;97718.84;;;11.50;70.94
7532;BME280;3807;49.030;8.714;2023-03-14T13:01:59;97723.75;;;11.53;68.24
7532;BME280;3807;49.030;8.714;2023-03-14T13:04:28;97732.63;;;11.48;67.50
7532;BME280;3807;49.030;8.714;2023-03-14T13:06:57;97743.25;;;11.54;67.28
7532;BME280;3807;49.030;8.714;2023-03-14T13:11:51;97771.12;;;11.84;66.19
7532;BME280;3807;49.030;8.714;2023-03-14T13:14:18;97784.22;;;11.78;64.72
7532;BME280;3807;49.030;8.714;2023-03-14T13:16:43;97783.19;;;11.68;65.33
7532;BME280;3807;49.030;8.714;2023-03-14T13:19:18;97798.06;;;11.88;64.96
7532;BME280;3807;49.030;8.714;2023-03-14T13:21:44;97808.88;;;11.65;63.95
7532;BME280;3807;49.030;8.714;2023-03-14T13:24:27;97817.03;;;11.84;62.30
7532;BME280;3807;49.030;8.714;2023-03-14T13:26:56;97835.81;;;11.69;63.41
7532;BME280;3807;49.030;8.714;2023-03-14T13:29:24;97809.69;;;11.65;62.40
7532;BME280;3807;49.030;8.714;2023-03-14T13:31:52;97847.16;;;11.51;60.19
7532;BME280;3807;49.030;8.714;2023-03-14T13:34:18;97840.62;;;11.88;62.21
7532;BME280;3807;49.030;8.714;2023-03-14T13:36:43;97842.88;;;11.78;62.21
7532;BME280;3807;49.030;8.714;2023-03-14T13:39:16;97848.19;;;11.75;61.82
7532;BME280;3807;49.030;8.714;2023-03-14T13:41:42;97866.22;;;11.72;61.24
7532;BME280;3807;49.030;8.714;2023-03-14T13:44:13;97870.41;;;11.73;61.48
7532;BME280;3807;49.030;8.714;2023-03-14T13:46:40;97882.25;;;11.74;61.08
7532;BME280;3807;49.030;8.714;2023-03-14T13:49:10;97892.19;;;11.79;61.17
7532;BME280;3807;49.030;8.714;2023-03-14T13:51:38;97886.62;;;11.72;60.92
7532;BME280;3807;49.030;8.714;2023-03-14T13:54:13;97907.88;;;11.58;59.83
7532;BME280;3807;49.030;8.714;2023-03-14T13:56:39;97906.59;;;11.51;61.05
7532;BME280;3807;49.030;8.714;2023-03-14T13:59:21;97927.06;;;11.50;58.05
7532;BME280;3807;49.030;8.714;2023-03-14T14:01:46;97946.81;;;11.60;59.45
7532;BME280;3807;49.030;8.714;2023-03-14T14:04:17;97958.63;;;11.33;58.47
7532;BME280;3807;49.030;8.714;2023-03-14T14:06:57;97966.44;;;11.15;57.36
7532;BME280;3807;49.030;8.714;2023-03-14T14:09:29;97969.00;;;11.15;58.33
7532;BME280;3807;49.030;8.714;2023-03-14T14:12:07;97986.94;;;11.14;57.75
7532;BME280;3807;49.030;8.714;2023-03-14T14:14:50;97993.28;;;11.51;59.00